sensor_id;sensor_type;location;lat;lon;timestamp;temperature;humidity
17571;DHT22;8903;52.220;20.978;2022-07-29T00:00:37;17.60;99.90
17571;DHT22;8903;52.220;20.978;2022-07-29T00:03:04;17.60;99.90
17571;DHT22;8903;52.220;20.978;2022-07-29T00:05:30;17.60;99.90
17571;DHT22;8903;52.220;20.978;2022-07-29T00:07:57;17.60;99.90
17571;DHT22;8903;52.220;20.978;2022-07-29T00:10:24;17.60;99.90
17571;DHT22;8903;52.220;20.978;2022-07-29T00:12:52;17.60;99.90
17571;DHT22;8903;52.220;20.978;2022-07-29T00:15:19;17.60;99.90
17571;DHT22;8903;52.220;20.978;2022-07-29T00:17:45;17.60;99.90
17571;DHT22;8903;52.220;20.978;2022-07-29T00:20:12;17.50;99.90
17571;DHT22;8903;52.220;20.978;2022-07-29T00:22:39;17.50;99.90
17571;DHT22;8903;52.220;20.978;2022-07-29T00:25:06;17.50;99.90
17571;DHT22;8903;52.220;20.978;2022-07-29T00:27:33;17.50;99.90
17571;DHT22;8903;52.220;20.978;2022-07-29T00:30:01;17.50;99.90
17571;DHT22;8903;52.220;20.978;2022-07-29T00:32:28;17.40;99.90
17571;DHT22;8903;52.220;20.978;2022-07-29T00:34:55;17.50;99.90
17571;DHT22;8903;52.220;20.978;2022-07-29T00:37:39;17.50;99.90
17571;DHT22;8903;52.220;20.978;2022-07-29T00:40:06;17.50;99.90
17571;DHT22;8903;52.220;20.978;2022-07-29T00:42:40;17.40;99.90
17571;DHT22;8903;52.220;20.978;2022-07-29T00:45:09;17.40;99.90
17571;DHT22;8903;52.220;20.978;2022-07-29T00:47:35;17.30;99.90
17571;DHT22;8903;52.220;20.978;2022-07-29T00:50:03;17.30;99.90
17571;DHT22;8903;52.220;20.978;2022-07-29T00:52:30;17.30;99.90
17571;DHT22;8903;52.220;20.978;2022-07-29T00:54:56;17.30;99.90
17571;DHT22;8903;52.220;20.978;2022-07-29T00:57:23;17.30;99.90
17571;DHT22;8903;52.220;20.978;2022-07-29T00:59:50;17.20;99.90
17571;DHT22;8903;52.220;20.978;2022-07-29T01:02:18;17.20;99.90
17571;DHT22;8903;52.220;20.978;2022-07-29T01:04:45;17.20;99.90
17571;DHT22;8903;52.220;20.978;2022-07-29T01:07:12;17.20;99.90
17571;DHT22;8903;52.220;20.978;2022-07-29T01:09:39;17.10;99.90
17571;DHT22;8903;52.220;20.978;2022-07-29T01:12:06;17.10;99.90
17571;DHT22;8903;52.220;20.978;2022-07-29T01:14:33;17.10;99.90
17571;DHT22;8903;52.220;20.978;2022-07-29T01:17:02;17.00;99.90
17571;DHT22;8903;52.220;20.978;2022-07-29T01:19:42;17.00;99.90
17571;DHT22;8903;52.220;20.978;2022-07-29T01:22:17;17.00;99.90
17571;DHT22;8903;52.220;20.978;2022-07-29T01:24:50;17.00;99.90
17571;DHT22;8903;52.220;20.978;2022-07-29T01:27:26;17.00;99.90
17571;DHT22;8903;52.220;20.978;2022-07-29T01:30:00;16.90;99.90
17571;DHT22;8903;52.220;20.978;2022-07-29T01:32:28;16.90;99.90
17571;DHT22;8903;52.220;20.978;2022-07-29T01:34:56;16.90;99.90
17571;DHT22;8903;52.220;20.978;2022-07-29T01:37:26;16.80;99.90
17571;DHT22;8903;52.220;20.978;2022-07-29T01:39:54;16.80;99.90
17571;DHT22;8903;52.220;20.978;2022-07-29T01:42:23;16.80;99.90
17571;DHT22;8903;52.220;20.978;2022-07-29T01:44:54;16.80;99.90
17571;DHT22;8903;52.220;20.978;2022-07-29T01:47:25;16.80;99.90
17571;DHT22;8903;52.220;20.978;2022-07-29T01:49:54;16.70;99.90
17571;DHT22;8903;52.220;20.978;2022-07-29T01:52:23;16.70;99.90
17571;DHT22;8903;52.220;20.978;2022-07-29T01:54:53;16.70;99.90
17571;DHT22;8903;52.220;20.978;2022-07-29T01:57:21;16.70;99.90
17571;DHT22;8903;52.220;20.978;2022-07-29T01:59:49;16.60;99.90
17571;DHT22;8903;52.220;20.978;2022-07-29T02:02:17;16.60;99.90
17571;DHT22;8903;52.220;20.978;2022-07-29T02:04:45;16.60;99.90
17571;DHT22;8903;52.220;20.978;2022-07-29T02:07:15;16.50;99.90
17571;DHT22;8903;52.220;20.978;2022-07-29T02:09:43;16.50;99.90
17571;DHT22;8903;52.220;20.978;2022-07-29T02:12:10;16.50;99.90
17571;DHT22;8903;52.220;20.978;2022-07-29T02:14:42;16.40;99.90
17571;DHT22;8903;52.220;20.978;2022-07-29T02:17:10;16.50;99.90
17571;DHT22;8903;52.220;20.978;2022-07-29T02:19:38;16.40;99.90
17571;DHT22;8903;52.220;20.978;2022-07-29T02:22:07;16.40;99.90
17571;DHT22;8903;52.220;20.978;2022-07-29T02:24:35;16.40;99.90
17571;DHT22;8903;52.220;20.978;2022-07-29T02:27:03;16.40;99.90
17571;DHT22;8903;52.220;20.978;2022-07-29T02:29:30;16.40;99.90
17571;DHT22;8903;52.220;20.978;2022-07-29T02:31:58;16.30;99.90
17571;DHT22;8903;52.220;20.978;2022-07-29T02:34:25;16.30;99.90
17571;DHT22;8903;52.220;20.978;2022-07-29T02:36:52;16.30;99.90
17571;DHT22;8903;52.220;20.978;2022-07-29T02:39:22;16.30;99.90
17571;DHT22;8903;52.220;20.978;2022-07-29T02:41:50;16.20;99.90
17571;DHT22;8903;52.220;20.978;2022-07-29T02:44:18;16.20;99.90
17571;DHT22;8903;52.220;20.978;2022-07-29T02:46:46;16.10;99.90
17571;DHT22;8903;52.220;20.978;2022-07-29T02:49:15;16.10;99.90
17571;DHT22;8903;52.220;20.978;2022-07-29T02:51:43;16.10;99.90
17571;DHT22;8903;52.220;20.978;2022-07-29T02:54:14;16.00;99.90
17571;DHT22;8903;52.220;20.978;2022-07-29T02:56:46;15.90;99.90
17571;DHT22;8903;52.220;20.978;2022-07-29T02:59:14;16.00;99.90
17571;DHT22;8903;52.220;20.978;2022-07-29T03:01:43;15.90;99.90
17571;DHT22;8903;52.220;20.978;2022-07-29T03:04:11;15.90;99.90
17571;DHT22;8903;52.220;20.978;2022-07-29T03:06:39;15.80;99.90
17571;DHT22;8903;52.220;20.978;2022-07-29T03:09:07;15.80;99.90
17571;DHT22;8903;52.220;20.978;2022-07-29T03:11:34;15.80;99.90
17571;DHT22;8903;52.220;20.978;2022-07-29T03:14:03;15.70;99.90
17571;DHT22;8903;52.220;20.978;2022-07-29T03:16:31;15.70;99.90
17571;DHT22;8903;52.220;20.978;2022-07-29T03:18:58;15.70;99.90
17571;DHT22;8903;52.220;20.978;2022-07-29T03:21:24;15.70;99.90
17571;DHT22;8903;52.220;20.978;2022-07-29T03:23:51;15.70;99.90
17571;DHT22;8903;52.220;20.978;2022-07-29T03:26:18;15.70;99.90
17571;DHT22;8903;52.220;20.978;2022-07-29T03:28:45;15.70;99.90
17571;DHT22;8903;52.220;20.978;2022-07-29T03:31:13;15.70;99.90
17571;DHT22;8903;52.220;20.978;2022-07-29T03:33:39;15.70;99.90
17571;DHT22;8903;52.220;20.978;2022-07-29T03:36:06;15.70;99.90
17571;DHT22;8903;52.220;20.978;2022-07-29T03:38:33;15.80;99.90
17571;DHT22;8903;52.220;20.978;2022-07-29T03:41:03;15.70;99.90
17571;DHT22;8903;52.220;20.978;2022-07-29T03:43:34;15.70;99.90
17571;DHT22;8903;52.220;20.978;2022-07-29T03:46:01;15.70;99.90
17571;DHT22;8903;52.220;20.978;2022-07-29T03:48:30;15.70;99.90
17571;DHT22;8903;52.220;20.978;2022-07-29T03:50:59;15.80;99.90
17571;DHT22;8903;52.220;20.978;2022-07-29T03:53:25;15.80;99.90
17571;DHT22;8903;52.220;20.978;2022-07-29T03:55:53;15.80;99.90
17571;DHT22;8903;52.220;20.978;2022-07-29T03:58:21;15.90;99.90
17571;DHT22;8903;52.220;20.978;2022-07-29T04:00:48;15.90;99.90
17571;DHT22;8903;52.220;20.978;2022-07-29T04:03:15;15.90;99.90
17571;DHT22;8903;52.220;20.978;2022-07-29T04:05:43;16.00;99.90
17571;DHT22;8903;52.220;20.978;2022-07-29T04:08:10;16.00;99.90
17571;DHT22;8903;52.220;20.978;2022-07-29T04:10:37;16.10;99.90
17571;DHT22;8903;52.220;20.978;2022-07-29T04:13:04;16.10;99.90
17571;DHT22;8903;52.220;20.978;2022-07-29T04:15:30;16.20;99.90
17571;DHT22;8903;52.220;20.978;2022-07-29T04:17:57;16.20;99.90
17571;DHT22;8903;52.220;20.978;2022-07-29T04:20:24;16.20;99.90
17571;DHT22;8903;52.220;20.978;2022-07-29T04:22:52;16.30;99.90
17571;DHT22;8903;52.220;20.978;2022-07-29T04:25:19;16.30;99.90
17571;DHT22;8903;52.220;20.978;2022-07-29T04:27:45;16.30;99.90
17571;DHT22;8903;52.220;20.978;2022-07-29T04:30:39;16.40;99.90
17571;DHT22;8903;52.220;20.978;2022-07-29T04:33:06;16.50;99.90
17571;DHT22;8903;52.220;20.978;2022-07-29T04:35:34;16.50;99.90
17571;DHT22;8903;52.220;20.978;2022-07-29T04:38:01;16.60;99.90
17571;DHT22;8903;52.220;20.978;2022-07-29T04:40:28;16.70;99.90
17571;DHT22;8903;52.220;20.978;2022-07-29T04:42:55;16.70;99.90
17571;DHT22;8903;52.220;20.978;2022-07-29T04:45:22;16.80;99.90
17571;DHT22;8903;52.220;20.978;2022-07-29T04:47:50;16.80;99.90
17571;DHT22;8903;52.220;20.978;2022-07-29T04:50:16;16.90;99.90
17571;DHT22;8903;52.220;20.978;2022-07-29T04:52:43;17.00;99.90
17571;DHT22;8903;52.220;20.978;2022-07-29T04:55:10;17.10;99.90
17571;DHT22;8903;52.220;20.978;2022-07-29T04:57:36;17.10;99.90
17571;DHT22;8903;52.220;20.978;2022-07-29T05:00:03;17.10;99.90
17571;DHT22;8903;52.220;20.978;2022-07-29T05:02:30;17.20;99.90
17571;DHT22;8903;52.220;20.978;2022-07-29T05:04:58;17.30;99.90
17571;DHT22;8903;52.220;20.978;2022-07-29T05:07:25;17.40;99.90
17571;DHT22;8903;52.220;20.978;2022-07-29T05:09:52;17.50;99.90
17571;DHT22;8903;52.220;20.978;2022-07-29T05:12:19;17.60;99.90
17571;DHT22;8903;52.220;20.978;2022-07-29T05:14:45;17.60;99.90
17571;DHT22;8903;52.220;20.978;2022-07-29T05:17:12;17.70;99.90
17571;DHT22;8903;52.220;20.978;2022-07-29T05:19:39;17.70;99.90
17571;DHT22;8903;52.220;20.978;2022-07-29T05:22:07;17.70;99.90
17571;DHT22;8903;52.220;20.978;2022-07-29T05:24:33;17.80;99.90
17571;DHT22;8903;52.220;20.978;2022-07-29T05:27:00;17.90;99.90
17571;DHT22;8903;52.220;20.978;2022-07-29T05:29:27;17.90;99.90
17571;DHT22;8903;52.220;20.978;2022-07-29T05:31:53;18.00;99.90
17571;DHT22;8903;52.220;20.978;2022-07-29T05:34:20;18.20;99.90
17571;DHT22;8903;52.220;20.978;2022-07-29T05:36:47;18.20;99.90
17571;DHT22;8903;52.220;20.978;2022-07-29T05:39:15;18.30;99.90
17571;DHT22;8903;52.220;20.978;2022-07-29T05:41:41;18.40;99.90
17571;DHT22;8903;52.220;20.978;2022-07-29T05:44:08;18.40;99.90
17571;DHT22;8903;52.220;20.978;2022-07-29T05:46:34;18.50;99.90
17571;DHT22;8903;52.220;20.978;2022-07-29T05:49:01;18.40;99.90
17571;DHT22;8903;52.220;20.978;2022-07-29T05:51:28;18.40;99.90
17571;DHT22;8903;52.220;20.978;2022-07-29T05:53:56;18.50;99.90
17571;DHT22;8903;52.220;20.978;2022-07-29T05:56:24;18.60;99.90
17571;DHT22;8903;52.220;20.978;2022-07-29T05:58:51;18.70;99.90
17571;DHT22;8903;52.220;20.978;2022-07-29T06:01:18;18.70;99.90
17571;DHT22;8903;52.220;20.978;2022-07-29T06:03:45;18.80;99.90
17571;DHT22;8903;52.220;20.978;2022-07-29T06:06:11;18.90;99.90
17571;DHT22;8903;52.220;20.978;2022-07-29T06:08:38;19.00;99.90
17571;DHT22;8903;52.220;20.978;2022-07-29T06:11:05;19.10;99.90
17571;DHT22;8903;52.220;20.978;2022-07-29T06:13:34;19.20;99.90
17571;DHT22;8903;52.220;20.978;2022-07-29T06:16:01;19.30;99.90
17571;DHT22;8903;52.220;20.978;2022-07-29T06:18:27;19.30;99.90
17571;DHT22;8903;52.220;20.978;2022-07-29T06:20:54;19.30;99.90
17571;DHT22;8903;52.220;20.978;2022-07-29T06:23:21;19.30;99.90
17571;DHT22;8903;52.220;20.978;2022-07-29T06:25:47;19.40;99.90
17571;DHT22;8903;52.220;20.978;2022-07-29T06:28:14;19.40;99.90
17571;DHT22;8903;52.220;20.978;2022-07-29T06:30:42;19.50;99.90
17571;DHT22;8903;52.220;20.978;2022-07-29T06:33:09;19.50;99.90
17571;DHT22;8903;52.220;20.978;2022-07-29T06:35:35;19.50;99.90
17571;DHT22;8903;52.220;20.978;2022-07-29T06:38:04;19.60;99.90
17571;DHT22;8903;52.220;20.978;2022-07-29T06:40:31;19.70;99.90
17571;DHT22;8903;52.220;20.978;2022-07-29T06:43:15;19.80;99.90
17571;DHT22;8903;52.220;20.978;2022-07-29T06:45:43;19.90;99.90
17571;DHT22;8903;52.220;20.978;2022-07-29T06:48:10;20.00;99.90
17571;DHT22;8903;52.220;20.978;2022-07-29T06:50:36;20.00;99.90
17571;DHT22;8903;52.220;20.978;2022-07-29T06:53:03;20.00;99.90
17571;DHT22;8903;52.220;20.978;2022-07-29T06:55:30;20.10;99.90
17571;DHT22;8903;52.220;20.978;2022-07-29T06:57:56;20.20;99.90
17571;DHT22;8903;52.220;20.978;2022-07-29T07:00:23;20.40;99.90
17571;DHT22;8903;52.220;20.978;2022-07-29T07:02:51;20.40;99.90
17571;DHT22;8903;52.220;20.978;2022-07-29T07:05:18;20.40;99.90
17571;DHT22;8903;52.220;20.978;2022-07-29T07:07:44;20.50;99.90
17571;DHT22;8903;52.220;20.978;2022-07-29T07:10:11;20.40;99.90
17571;DHT22;8903;52.220;20.978;2022-07-29T07:12:38;20.50;99.90
17571;DHT22;8903;52.220;20.978;2022-07-29T07:15:05;20.60;99.90
17571;DHT22;8903;52.220;20.978;2022-07-29T07:17:32;20.70;99.90
17571;DHT22;8903;52.220;20.978;2022-07-29T07:20:00;20.80;99.90
17571;DHT22;8903;52.220;20.978;2022-07-29T07:22:27;20.90;99.90
17571;DHT22;8903;52.220;20.978;2022-07-29T07:24:54;21.10;99.90
17571;DHT22;8903;52.220;20.978;2022-07-29T07:27:20;21.20;99.90
17571;DHT22;8903;52.220;20.978;2022-07-29T07:29:47;21.30;99.90
17571;DHT22;8903;52.220;20.978;2022-07-29T07:32:13;21.40;99.90
17571;DHT22;8903;52.220;20.978;2022-07-29T07:34:41;21.40;99.90
17571;DHT22;8903;52.220;20.978;2022-07-29T07:37:09;21.50;99.90
17571;DHT22;8903;52.220;20.978;2022-07-29T07:39:36;21.60;99.90
17571;DHT22;8903;52.220;20.978;2022-07-29T07:42:03;21.60;99.90
17571;DHT22;8903;52.220;20.978;2022-07-29T07:44:29;21.60;99.90
17571;DHT22;8903;52.220;20.978;2022-07-29T07:46:56;21.70;99.90
17571;DHT22;8903;52.220;20.978;2022-07-29T07:49:23;21.70;99.90
17571;DHT22;8903;52.220;20.978;2022-07-29T07:51:50;21.80;99.90
17571;DHT22;8903;52.220;20.978;2022-07-29T07:54:19;21.80;99.90
17571;DHT22;8903;52.220;20.978;2022-07-29T07:56:46;21.80;99.90
17571;DHT22;8903;52.220;20.978;2022-07-29T07:59:14;21.90;99.90
17571;DHT22;8903;52.220;20.978;2022-07-29T08:01:41;21.90;99.90
17571;DHT22;8903;52.220;20.978;2022-07-29T08:04:07;22.00;99.90
17571;DHT22;8903;52.220;20.978;2022-07-29T08:06:34;22.00;99.90
17571;DHT22;8903;52.220;20.978;2022-07-29T08:09:02;22.20;99.90
17571;DHT22;8903;52.220;20.978;2022-07-29T08:11:30;22.20;99.20
17571;DHT22;8903;52.220;20.978;2022-07-29T08:13:56;22.30;99.70
17571;DHT22;8903;52.220;20.978;2022-07-29T08:16:23;22.30;99.50
17571;DHT22;8903;52.220;20.978;2022-07-29T08:18:50;22.30;99.60
17571;DHT22;8903;52.220;20.978;2022-07-29T08:21:17;22.50;99.30
17571;DHT22;8903;52.220;20.978;2022-07-29T08:23:44;22.50;99.00
17571;DHT22;8903;52.220;20.978;2022-07-29T08:26:18;22.60;98.80
17571;DHT22;8903;52.220;20.978;2022-07-29T08:28:46;22.70;98.80
17571;DHT22;8903;52.220;20.978;2022-07-29T08:31:16;22.90;98.90
17571;DHT22;8903;52.220;20.978;2022-07-29T08:33:43;23.10;98.60
17571;DHT22;8903;52.220;20.978;2022-07-29T08:36:09;23.20;98.80
17571;DHT22;8903;52.220;20.978;2022-07-29T08:38:38;23.40;98.20
17571;DHT22;8903;52.220;20.978;2022-07-29T08:41:04;23.50;97.80
17571;DHT22;8903;52.220;20.978;2022-07-29T08:43:31;23.60;97.20
17571;DHT22;8903;52.220;20.978;2022-07-29T08:46:01;23.70;97.70
17571;DHT22;8903;52.220;20.978;2022-07-29T08:48:28;23.80;97.00
17571;DHT22;8903;52.220;20.978;2022-07-29T08:50:56;23.90;96.50
17571;DHT22;8903;52.220;20.978;2022-07-29T08:53:24;23.90;96.70
17571;DHT22;8903;52.220;20.978;2022-07-29T08:55:52;24.20;95.90
17571;DHT22;8903;52.220;20.978;2022-07-29T08:58:19;24.40;95.40
17571;DHT22;8903;52.220;20.978;2022-07-29T09:00:48;24.80;94.90
17571;DHT22;8903;52.220;20.978;2022-07-29T09:03:17;25.00;95.10
17571;DHT22;8903;52.220;20.978;2022-07-29T09:05:44;25.00;95.30
17571;DHT22;8903;52.220;20.978;2022-07-29T09:08:12;25.10;94.90
17571;DHT22;8903;52.220;20.978;2022-07-29T09:10:38;25.20;94.30
17571;DHT22;8903;52.220;20.978;2022-07-29T09:13:05;25.20;94.70
17571;DHT22;8903;52.220;20.978;2022-07-29T09:15:32;25.10;94.80
17571;DHT22;8903;52.220;20.978;2022-07-29T09:17:59;25.00;94.90
17571;DHT22;8903;52.220;20.978;2022-07-29T09:20:27;25.10;95.20
17571;DHT22;8903;52.220;20.978;2022-07-29T09:23:15;25.10;95.50
17571;DHT22;8903;52.220;20.978;2022-07-29T09:25:42;25.00;95.20
17571;DHT22;8903;52.220;20.978;2022-07-29T09:28:09;24.90;95.00
17571;DHT22;8903;52.220;20.978;2022-07-29T09:30:36;24.80;94.90
17571;DHT22;8903;52.220;20.978;2022-07-29T09:33:05;24.90;95.00
17571;DHT22;8903;52.220;20.978;2022-07-29T09:35:33;24.80;95.40
17571;DHT22;8903;52.220;20.978;2022-07-29T09:38:09;24.70;95.10
17571;DHT22;8903;52.220;20.978;2022-07-29T09:40:36;24.60;95.40
17571;DHT22;8903;52.220;20.978;2022-07-29T09:43:08;24.70;95.10
17571;DHT22;8903;52.220;20.978;2022-07-29T09:45:36;24.90;94.80
17571;DHT22;8903;52.220;20.978;2022-07-29T09:48:12;25.00;94.50
17571;DHT22;8903;52.220;20.978;2022-07-29T09:50:42;25.00;94.50
17571;DHT22;8903;52.220;20.978;2022-07-29T09:53:09;25.00;94.20
17571;DHT22;8903;52.220;20.978;2022-07-29T09:55:45;25.00;93.50
17571;DHT22;8903;52.220;20.978;2022-07-29T09:58:16;25.00;93.50
17571;DHT22;8903;52.220;20.978;2022-07-29T10:00:43;25.00;93.00
17571;DHT22;8903;52.220;20.978;2022-07-29T10:03:09;25.10;93.30
17571;DHT22;8903;52.220;20.978;2022-07-29T10:05:37;25.20;93.60
17571;DHT22;8903;52.220;20.978;2022-07-29T10:08:06;25.20;93.20
17571;DHT22;8903;52.220;20.978;2022-07-29T10:10:34;25.10;93.20
17571;DHT22;8903;52.220;20.978;2022-07-29T10:13:02;25.10;92.90
17571;DHT22;8903;52.220;20.978;2022-07-29T10:15:30;25.20;92.80
17571;DHT22;8903;52.220;20.978;2022-07-29T10:17:58;25.30;92.70
17571;DHT22;8903;52.220;20.978;2022-07-29T10:20:25;25.40;92.90
17571;DHT22;8903;52.220;20.978;2022-07-29T10:22:53;25.40;92.90
17571;DHT22;8903;52.220;20.978;2022-07-29T10:25:21;25.40;92.80
17571;DHT22;8903;52.220;20.978;2022-07-29T10:27:48;25.50;92.80
17571;DHT22;8903;52.220;20.978;2022-07-29T10:30:17;25.60;92.60
17571;DHT22;8903;52.220;20.978;2022-07-29T10:32:49;25.70;92.20
17571;DHT22;8903;52.220;20.978;2022-07-29T10:35:19;25.90;92.30
17571;DHT22;8903;52.220;20.978;2022-07-29T10:37:52;26.00;91.90
17571;DHT22;8903;52.220;20.978;2022-07-29T10:40:27;26.00;91.80
17571;DHT22;8903;52.220;20.978;2022-07-29T10:43:16;26.00;91.70
17571;DHT22;8903;52.220;20.978;2022-07-29T10:45:44;26.10;91.60
17571;DHT22;8903;52.220;20.978;2022-07-29T10:48:11;26.20;91.20
17571;DHT22;8903;52.220;20.978;2022-07-29T10:50:57;26.20;91.30
17571;DHT22;8903;52.220;20.978;2022-07-29T10:53:45;26.30;91.70
17571;DHT22;8903;52.220;20.978;2022-07-29T10:56:23;26.30;91.60
17571;DHT22;8903;52.220;20.978;2022-07-29T11:01:32;26.30;91.30
17571;DHT22;8903;52.220;20.978;2022-07-29T11:03:59;26.10;91.20
17571;DHT22;8903;52.220;20.978;2022-07-29T11:06:27;26.00;91.50
17571;DHT22;8903;52.220;20.978;2022-07-29T11:09:17;25.90;91.60
17571;DHT22;8903;52.220;20.978;2022-07-29T11:11:46;26.00;91.40
17571;DHT22;8903;52.220;20.978;2022-07-29T11:14:12;26.10;91.70
17571;DHT22;8903;52.220;20.978;2022-07-29T11:16:58;26.30;91.30
17571;DHT22;8903;52.220;20.978;2022-07-29T11:19:26;26.30;90.80
17571;DHT22;8903;52.220;20.978;2022-07-29T11:21:52;26.30;91.10
17571;DHT22;8903;52.220;20.978;2022-07-29T11:24:20;26.20;91.00
17571;DHT22;8903;52.220;20.978;2022-07-29T11:27:09;26.30;90.80
17571;DHT22;8903;52.220;20.978;2022-07-29T11:29:38;26.40;90.90
17571;DHT22;8903;52.220;20.978;2022-07-29T11:32:08;26.50;90.60
17571;DHT22;8903;52.220;20.978;2022-07-29T11:34:36;26.70;90.60
17571;DHT22;8903;52.220;20.978;2022-07-29T11:37:18;26.90;90.10
17571;DHT22;8903;52.220;20.978;2022-07-29T11:39:46;27.40;89.70
17571;DHT22;8903;52.220;20.978;2022-07-29T11:45:02;28.20;87.30
17571;DHT22;8903;52.220;20.978;2022-07-29T11:47:31;28.10;87.60
17571;DHT22;8903;52.220;20.978;2022-07-29T11:50:00;28.00;88.60
17571;DHT22;8903;52.220;20.978;2022-07-29T11:52:31;28.10;88.30
17571;DHT22;8903;52.220;20.978;2022-07-29T11:54:58;28.40;87.70
17571;DHT22;8903;52.220;20.978;2022-07-29T11:57:28;28.70;87.20
17571;DHT22;8903;52.220;20.978;2022-07-29T11:59:55;28.90;86.80
17571;DHT22;8903;52.220;20.978;2022-07-29T12:02:25;28.90;86.20
17571;DHT22;8903;52.220;20.978;2022-07-29T12:05:04;29.00;86.10
17571;DHT22;8903;52.220;20.978;2022-07-29T12:07:31;29.40;85.90
17571;DHT22;8903;52.220;20.978;2022-07-29T12:09:58;29.60;84.90
17571;DHT22;8903;52.220;20.978;2022-07-29T12:12:25;29.80;84.40
17571;DHT22;8903;52.220;20.978;2022-07-29T12:14:51;29.90;84.00
17571;DHT22;8903;52.220;20.978;2022-07-29T12:17:27;30.20;82.60
17571;DHT22;8903;52.220;20.978;2022-07-29T12:19:55;30.80;80.70
17571;DHT22;8903;52.220;20.978;2022-07-29T12:22:25;31.80;80.70
17571;DHT22;8903;52.220;20.978;2022-07-29T12:24:53;32.50;79.50
17571;DHT22;8903;52.220;20.978;2022-07-29T12:27:20;34.20;78.10
17571;DHT22;8903;52.220;20.978;2022-07-29T12:29:54;34.80;75.40
17571;DHT22;8903;52.220;20.978;2022-07-29T12:32:21;34.30;75.00
17571;DHT22;8903;52.220;20.978;2022-07-29T12:34:49;32.90;76.60
17571;DHT22;8903;52.220;20.978;2022-07-29T12:37:17;31.90;78.40
17571;DHT22;8903;52.220;20.978;2022-07-29T12:39:43;30.80;80.20
17571;DHT22;8903;52.220;20.978;2022-07-29T12:42:11;29.70;82.30
17571;DHT22;8903;52.220;20.978;2022-07-29T12:44:44;28.90;83.80
17571;DHT22;8903;52.220;20.978;2022-07-29T12:47:11;28.30;85.30
17571;DHT22;8903;52.220;20.978;2022-07-29T12:49:38;27.80;86.50
17571;DHT22;8903;52.220;20.978;2022-07-29T12:54:48;27.50;87.60
17571;DHT22;8903;52.220;20.978;2022-07-29T12:57:14;27.50;87.20
17571;DHT22;8903;52.220;20.978;2022-07-29T12:59:41;27.70;87.10
17571;DHT22;8903;52.220;20.978;2022-07-29T13:02:19;28.50;85.60
17571;DHT22;8903;52.220;20.978;2022-07-29T13:04:54;29.00;84.20
17571;DHT22;8903;52.220;20.978;2022-07-29T13:07:23;29.10;83.40
17571;DHT22;8903;52.220;20.978;2022-07-29T13:09:52;29.20;83.20
17571;DHT22;8903;52.220;20.978;2022-07-29T13:12:18;29.00;83.60
17571;DHT22;8903;52.220;20.978;2022-07-29T13:14:46;29.10;83.70
17571;DHT22;8903;52.220;20.978;2022-07-29T13:17:14;29.40;83.40
17571;DHT22;8903;52.220;20.978;2022-07-29T13:19:42;29.00;84.10
17571;DHT22;8903;52.220;20.978;2022-07-29T13:22:09;28.60;85.20
17571;DHT22;8903;52.220;20.978;2022-07-29T13:24:46;29.00;83.60
17571;DHT22;8903;52.220;20.978;2022-07-29T13:27:15;28.50;83.90
17571;DHT22;8903;52.220;20.978;2022-07-29T13:29:42;28.00;85.60
17571;DHT22;8903;52.220;20.978;2022-07-29T13:32:09;27.80;85.80
17571;DHT22;8903;52.220;20.978;2022-07-29T13:34:36;27.80;86.00
17571;DHT22;8903;52.220;20.978;2022-07-29T13:37:02;28.10;85.90
17571;DHT22;8903;52.220;20.978;2022-07-29T13:39:29;28.50;84.80
17571;DHT22;8903;52.220;20.978;2022-07-29T13:41:56;28.60;83.70
17571;DHT22;8903;52.220;20.978;2022-07-29T13:44:24;28.10;85.20
17571;DHT22;8903;52.220;20.978;2022-07-29T13:46:51;28.00;85.80
17571;DHT22;8903;52.220;20.978;2022-07-29T13:49:17;28.50;84.80
17571;DHT22;8903;52.220;20.978;2022-07-29T13:51:44;29.00;83.40
17571;DHT22;8903;52.220;20.978;2022-07-29T13:54:11;29.50;82.60
17571;DHT22;8903;52.220;20.978;2022-07-29T13:56:37;30.20;81.30
17571;DHT22;8903;52.220;20.978;2022-07-29T13:59:04;30.60;80.50
17571;DHT22;8903;52.220;20.978;2022-07-29T14:01:32;31.00;79.60
17571;DHT22;8903;52.220;20.978;2022-07-29T14:03:59;31.40;78.50
17571;DHT22;8903;52.220;20.978;2022-07-29T14:06:25;31.80;78.00
17571;DHT22;8903;52.220;20.978;2022-07-29T14:08:52;32.00;76.90
17571;DHT22;8903;52.220;20.978;2022-07-29T14:11:19;32.00;77.00
17571;DHT22;8903;52.220;20.978;2022-07-29T14:13:46;31.30;77.70
17571;DHT22;8903;52.220;20.978;2022-07-29T14:16:12;30.70;79.10
17571;DHT22;8903;52.220;20.978;2022-07-29T14:18:40;30.60;78.90
17571;DHT22;8903;52.220;20.978;2022-07-29T14:21:07;30.40;78.70
17571;DHT22;8903;52.220;20.978;2022-07-29T14:23:34;30.50;79.10
17571;DHT22;8903;52.220;20.978;2022-07-29T14:26:01;30.20;79.10
17571;DHT22;8903;52.220;20.978;2022-07-29T14:28:27;30.10;79.70
17571;DHT22;8903;52.220;20.978;2022-07-29T14:30:54;30.20;79.40
17571;DHT22;8903;52.220;20.978;2022-07-29T14:33:21;29.90;79.50
17571;DHT22;8903;52.220;20.978;2022-07-29T14:35:49;29.40;81.30
17571;DHT22;8903;52.220;20.978;2022-07-29T14:38:15;29.20;80.90
17571;DHT22;8903;52.220;20.978;2022-07-29T14:40:42;29.10;81.50
17571;DHT22;8903;52.220;20.978;2022-07-29T14:43:09;29.30;81.30
17571;DHT22;8903;52.220;20.978;2022-07-29T14:45:35;29.70;80.20
17571;DHT22;8903;52.220;20.978;2022-07-29T14:48:02;30.30;79.40
17571;DHT22;8903;52.220;20.978;2022-07-29T14:50:29;30.60;78.70
17571;DHT22;8903;52.220;20.978;2022-07-29T14:52:57;30.50;78.60
17571;DHT22;8903;52.220;20.978;2022-07-29T14:55:24;30.70;78.40
17571;DHT22;8903;52.220;20.978;2022-07-29T14:57:51;31.30;77.40
17571;DHT22;8903;52.220;20.978;2022-07-29T15:00:17;31.90;76.70
17571;DHT22;8903;52.220;20.978;2022-07-29T15:02:44;32.40;75.40
17571;DHT22;8903;52.220;20.978;2022-07-29T15:05:11;32.70;74.60
17571;DHT22;8903;52.220;20.978;2022-07-29T15:07:37;32.80;73.90
17571;DHT22;8903;52.220;20.978;2022-07-29T15:10:06;32.90;73.90
17571;DHT22;8903;52.220;20.978;2022-07-29T15:12:32;32.80;73.50
17571;DHT22;8903;52.220;20.978;2022-07-29T15:14:59;32.20;74.00
17571;DHT22;8903;52.220;20.978;2022-07-29T15:17:26;32.00;75.60
17571;DHT22;8903;52.220;20.978;2022-07-29T15:19:52;32.30;75.10
17571;DHT22;8903;52.220;20.978;2022-07-29T15:22:19;32.60;74.40
17571;DHT22;8903;52.220;20.978;2022-07-29T15:24:46;32.50;74.40
17571;DHT22;8903;52.220;20.978;2022-07-29T15:27:14;32.50;74.50
17571;DHT22;8903;52.220;20.978;2022-07-29T15:29:41;32.00;74.80
17571;DHT22;8903;52.220;20.978;2022-07-29T15:32:07;31.30;76.00
17571;DHT22;8903;52.220;20.978;2022-07-29T15:34:34;30.60;76.90
17571;DHT22;8903;52.220;20.978;2022-07-29T15:37:01;29.90;78.80
17571;DHT22;8903;52.220;20.978;2022-07-29T15:39:30;29.20;79.00
17571;DHT22;8903;52.220;20.978;2022-07-29T15:41:57;28.50;80.80
17571;DHT22;8903;52.220;20.978;2022-07-29T15:44:25;28.10;81.10